sensor_id;sensor_type;location;lat;lon;timestamp;temperature;humidity
7784;DHT22;19359;51.402;6.778;2022-10-16T00:00:43;12.60;99.90
7784;DHT22;19359;51.402;6.778;2022-10-16T00:03:10;12.50;99.90
7784;DHT22;19359;51.402;6.778;2022-10-16T00:05:42;12.50;99.90
7784;DHT22;19359;51.402;6.778;2022-10-16T00:08:10;12.50;99.90
7784;DHT22;19359;51.402;6.778;2022-10-16T00:10:37;12.50;99.90
7784;DHT22;19359;51.402;6.778;2022-10-16T00:13:06;12.40;99.90
7784;DHT22;19359;51.402;6.778;2022-10-16T00:15:34;12.40;99.90
7784;DHT22;19359;51.402;6.778;2022-10-16T00:18:02;12.40;99.90
7784;DHT22;19359;51.402;6.778;2022-10-16T00:20:29;12.40;99.90
7784;DHT22;19359;51.402;6.778;2022-10-16T00:22:56;12.40;99.90
7784;DHT22;19359;51.402;6.778;2022-10-16T00:25:23;12.40;99.90
7784;DHT22;19359;51.402;6.778;2022-10-16T00:27:50;12.40;99.90
7784;DHT22;19359;51.402;6.778;2022-10-16T00:30:18;12.40;99.90
7784;DHT22;19359;51.402;6.778;2022-10-16T00:32:45;12.30;99.90
7784;DHT22;19359;51.402;6.778;2022-10-16T00:35:12;12.30;99.90
7784;DHT22;19359;51.402;6.778;2022-10-16T00:37:38;12.30;99.90
7784;DHT22;19359;51.402;6.778;2022-10-16T00:40:06;12.20;99.90
7784;DHT22;19359;51.402;6.778;2022-10-16T00:42:33;12.20;99.90
7784;DHT22;19359;51.402;6.778;2022-10-16T00:45:00;12.10;99.90
7784;DHT22;19359;51.402;6.778;2022-10-16T00:47:31;12.10;99.90
7784;DHT22;19359;51.402;6.778;2022-10-16T00:50:03;12.10;99.90
7784;DHT22;19359;51.402;6.778;2022-10-16T00:52:32;12.20;99.90
7784;DHT22;19359;51.402;6.778;2022-10-16T00:55:00;12.10;99.90
7784;DHT22;19359;51.402;6.778;2022-10-16T00:57:28;12.20;99.90
7784;DHT22;19359;51.402;6.778;2022-10-16T00:59:55;12.30;99.90
7784;DHT22;19359;51.402;6.778;2022-10-16T01:02:23;12.40;99.90
7784;DHT22;19359;51.402;6.778;2022-10-16T01:04:52;12.40;99.90
7784;DHT22;19359;51.402;6.778;2022-10-16T01:07:30;12.40;99.90
7784;DHT22;19359;51.402;6.778;2022-10-16T01:10:11;12.30;99.90
7784;DHT22;19359;51.402;6.778;2022-10-16T01:12:42;12.30;99.90
7784;DHT22;19359;51.402;6.778;2022-10-16T01:15:17;12.30;99.90
7784;DHT22;19359;51.402;6.778;2022-10-16T01:17:49;12.20;99.90
7784;DHT22;19359;51.402;6.778;2022-10-16T01:20:26;12.20;99.90
7784;DHT22;19359;51.402;6.778;2022-10-16T01:23:03;12.30;99.90
7784;DHT22;19359;51.402;6.778;2022-10-16T01:25:40;12.30;99.90
7784;DHT22;19359;51.402;6.778;2022-10-16T01:28:13;12.30;99.90
7784;DHT22;19359;51.402;6.778;2022-10-16T01:30:42;12.30;99.90
7784;DHT22;19359;51.402;6.778;2022-10-16T01:33:13;12.30;99.90
7784;DHT22;19359;51.402;6.778;2022-10-16T01:35:44;12.30;99.90
7784;DHT22;19359;51.402;6.778;2022-10-16T01:38:15;12.30;99.90
7784;DHT22;19359;51.402;6.778;2022-10-16T01:40:46;12.40;99.90
7784;DHT22;19359;51.402;6.778;2022-10-16T01:43:17;12.50;99.90
7784;DHT22;19359;51.402;6.778;2022-10-16T01:45:46;12.90;99.90
7784;DHT22;19359;51.402;6.778;2022-10-16T01:48:16;12.60;99.90
7784;DHT22;19359;51.402;6.778;2022-10-16T01:50:52;12.70;99.90
7784;DHT22;19359;51.402;6.778;2022-10-16T01:53:20;12.70;99.90
7784;DHT22;19359;51.402;6.778;2022-10-16T01:55:48;12.70;99.90
7784;DHT22;19359;51.402;6.778;2022-10-16T01:58:17;12.80;99.90
7784;DHT22;19359;51.402;6.778;2022-10-16T02:00:45;12.80;99.90
7784;DHT22;19359;51.402;6.778;2022-10-16T02:03:16;12.80;99.90
7784;DHT22;19359;51.402;6.778;2022-10-16T02:05:47;12.90;99.90
7784;DHT22;19359;51.402;6.778;2022-10-16T02:08:14;12.80;99.90
7784;DHT22;19359;51.402;6.778;2022-10-16T02:10:41;12.90;99.90
7784;DHT22;19359;51.402;6.778;2022-10-16T02:13:10;12.70;99.90
7784;DHT22;19359;51.402;6.778;2022-10-16T02:15:40;12.80;99.90
7784;DHT22;19359;51.402;6.778;2022-10-16T02:18:07;12.70;99.90
7784;DHT22;19359;51.402;6.778;2022-10-16T02:20:43;12.70;99.90
7784;DHT22;19359;51.402;6.778;2022-10-16T02:23:16;12.80;99.90
7784;DHT22;19359;51.402;6.778;2022-10-16T02:25:45;12.70;99.90
7784;DHT22;19359;51.402;6.778;2022-10-16T02:28:16;12.70;99.90
7784;DHT22;19359;51.402;6.778;2022-10-16T02:30:50;12.80;99.90
7784;DHT22;19359;51.402;6.778;2022-10-16T02:33:18;12.80;99.90
7784;DHT22;19359;51.402;6.778;2022-10-16T02:35:47;12.70;99.90
7784;DHT22;19359;51.402;6.778;2022-10-16T02:38:16;12.80;99.90
7784;DHT22;19359;51.402;6.778;2022-10-16T02:40:43;12.70;99.90
7784;DHT22;19359;51.402;6.778;2022-10-16T02:43:10;12.70;99.90
7784;DHT22;19359;51.402;6.778;2022-10-16T02:45:38;12.80;99.90
7784;DHT22;19359;51.402;6.778;2022-10-16T02:48:06;12.80;99.90
7784;DHT22;19359;51.402;6.778;2022-10-16T02:50:33;12.90;99.90
7784;DHT22;19359;51.402;6.778;2022-10-16T02:53:00;12.90;99.90
7784;DHT22;19359;51.402;6.778;2022-10-16T02:55:26;12.80;99.90
7784;DHT22;19359;51.402;6.778;2022-10-16T02:57:55;12.90;99.90
7784;DHT22;19359;51.402;6.778;2022-10-16T03:00:21;12.90;99.90
7784;DHT22;19359;51.402;6.778;2022-10-16T03:02:48;13.20;99.90
7784;DHT22;19359;51.402;6.778;2022-10-16T03:05:16;13.00;99.90
7784;DHT22;19359;51.402;6.778;2022-10-16T03:07:43;12.90;99.90
7784;DHT22;19359;51.402;6.778;2022-10-16T03:10:10;13.60;99.90
7784;DHT22;19359;51.402;6.778;2022-10-16T03:12:36;13.00;99.90
7784;DHT22;19359;51.402;6.778;2022-10-16T03:15:04;13.00;99.90
7784;DHT22;19359;51.402;6.778;2022-10-16T03:17:32;12.90;99.90
7784;DHT22;19359;51.402;6.778;2022-10-16T03:19:59;12.90;99.90
7784;DHT22;19359;51.402;6.778;2022-10-16T03:22:27;12.90;99.90
7784;DHT22;19359;51.402;6.778;2022-10-16T03:24:54;12.90;99.90
7784;DHT22;19359;51.402;6.778;2022-10-16T03:27:21;12.90;99.90
7784;DHT22;19359;51.402;6.778;2022-10-16T03:29:47;12.90;99.90
7784;DHT22;19359;51.402;6.778;2022-10-16T03:32:14;12.90;99.90
7784;DHT22;19359;51.402;6.778;2022-10-16T03:34:41;12.90;99.90
7784;DHT22;19359;51.402;6.778;2022-10-16T03:37:08;12.90;99.90
7784;DHT22;19359;51.402;6.778;2022-10-16T03:39:36;12.90;99.90
7784;DHT22;19359;51.402;6.778;2022-10-16T03:42:02;12.90;99.90
7784;DHT22;19359;51.402;6.778;2022-10-16T03:44:29;12.80;99.90
7784;DHT22;19359;51.402;6.778;2022-10-16T03:46:56;12.80;99.90
7784;DHT22;19359;51.402;6.778;2022-10-16T03:49:23;12.70;99.90
7784;DHT22;19359;51.402;6.778;2022-10-16T03:51:49;12.80;99.90
7784;DHT22;19359;51.402;6.778;2022-10-16T03:54:16;12.80;99.90
7784;DHT22;19359;51.402;6.778;2022-10-16T03:56:44;12.90;99.90
7784;DHT22;19359;51.402;6.778;2022-10-16T03:59:11;12.80;99.90
7784;DHT22;19359;51.402;6.778;2022-10-16T04:01:37;12.70;99.90
7784;DHT22;19359;51.402;6.778;2022-10-16T04:04:04;12.80;99.90
7784;DHT22;19359;51.402;6.778;2022-10-16T04:06:31;12.80;99.90
7784;DHT22;19359;51.402;6.778;2022-10-16T04:08:58;12.70;99.90
7784;DHT22;19359;51.402;6.778;2022-10-16T04:11:24;12.70;99.90
7784;DHT22;19359;51.402;6.778;2022-10-16T04:13:52;12.80;99.90
7784;DHT22;19359;51.402;6.778;2022-10-16T04:16:19;12.70;99.90
7784;DHT22;19359;51.402;6.778;2022-10-16T04:18:46;12.70;99.90
7784;DHT22;19359;51.402;6.778;2022-10-16T04:21:12;12.70;99.90
7784;DHT22;19359;51.402;6.778;2022-10-16T04:23:39;12.70;99.90
7784;DHT22;19359;51.402;6.778;2022-10-16T04:26:06;12.70;99.90
7784;DHT22;19359;51.402;6.778;2022-10-16T04:28:32;12.70;99.90
7784;DHT22;19359;51.402;6.778;2022-10-16T04:31:03;12.60;99.90
7784;DHT22;19359;51.402;6.778;2022-10-16T04:33:30;12.60;99.90
7784;DHT22;19359;51.402;6.778;2022-10-16T04:35:57;12.60;99.90
7784;DHT22;19359;51.402;6.778;2022-10-16T04:38:24;12.60;99.90
7784;DHT22;19359;51.402;6.778;2022-10-16T04:40:51;12.50;99.90
7784;DHT22;19359;51.402;6.778;2022-10-16T04:43:18;12.60;99.90
7784;DHT22;19359;51.402;6.778;2022-10-16T04:45:45;12.60;99.90
7784;DHT22;19359;51.402;6.778;2022-10-16T04:48:13;12.60;99.90
7784;DHT22;19359;51.402;6.778;2022-10-16T04:50:40;12.60;99.90
7784;DHT22;19359;51.402;6.778;2022-10-16T04:53:07;12.60;99.90
7784;DHT22;19359;51.402;6.778;2022-10-16T04:55:34;12.60;99.90
7784;DHT22;19359;51.402;6.778;2022-10-16T04:58:01;12.60;99.90
7784;DHT22;19359;51.402;6.778;2022-10-16T05:00:28;12.50;99.90
7784;DHT22;19359;51.402;6.778;2022-10-16T05:02:55;12.40;99.90
7784;DHT22;19359;51.402;6.778;2022-10-16T05:05:23;12.40;99.90
7784;DHT22;19359;51.402;6.778;2022-10-16T05:07:50;12.40;99.90
7784;DHT22;19359;51.402;6.778;2022-10-16T05:10:17;12.40;99.90
7784;DHT22;19359;51.402;6.778;2022-10-16T05:12:43;12.40;99.90
7784;DHT22;19359;51.402;6.778;2022-10-16T05:15:10;12.60;99.90
7784;DHT22;19359;51.402;6.778;2022-10-16T05:17:37;12.50;99.90
7784;DHT22;19359;51.402;6.778;2022-10-16T05:20:05;12.50;99.90
7784;DHT22;19359;51.402;6.778;2022-10-16T05:22:33;12.50;99.90
7784;DHT22;19359;51.402;6.778;2022-10-16T05:25:00;12.60;99.90
7784;DHT22;19359;51.402;6.778;2022-10-16T05:27:26;12.70;99.90
7784;DHT22;19359;51.402;6.778;2022-10-16T05:29:53;12.70;99.90
7784;DHT22;19359;51.402;6.778;2022-10-16T05:32:20;12.60;99.90
7784;DHT22;19359;51.402;6.778;2022-10-16T05:34:47;12.60;99.90
7784;DHT22;19359;51.402;6.778;2022-10-16T05:37:13;12.60;99.90
7784;DHT22;19359;51.402;6.778;2022-10-16T05:39:41;12.60;99.90
7784;DHT22;19359;51.402;6.778;2022-10-16T05:42:08;12.60;99.90
7784;DHT22;19359;51.402;6.778;2022-10-16T05:44:35;12.60;99.90
7784;DHT22;19359;51.402;6.778;2022-10-16T05:47:01;12.60;99.90
7784;DHT22;19359;51.402;6.778;2022-10-16T05:49:28;12.60;99.90
7784;DHT22;19359;51.402;6.778;2022-10-16T05:51:55;12.60;99.90
7784;DHT22;19359;51.402;6.778;2022-10-16T05:54:21;12.60;99.90
7784;DHT22;19359;51.402;6.778;2022-10-16T05:56:49;12.70;99.90
7784;DHT22;19359;51.402;6.778;2022-10-16T05:59:16;12.70;99.90
7784;DHT22;19359;51.402;6.778;2022-10-16T06:01:43;12.60;99.90
7784;DHT22;19359;51.402;6.778;2022-10-16T06:04:10;12.60;99.90
7784;DHT22;19359;51.402;6.778;2022-10-16T06:06:36;12.60;99.90
7784;DHT22;19359;51.402;6.778;2022-10-16T06:09:03;12.60;99.90
7784;DHT22;19359;51.402;6.778;2022-10-16T06:11:32;12.60;99.90
7784;DHT22;19359;51.402;6.778;2022-10-16T06:14:01;12.50;99.90
7784;DHT22;19359;51.402;6.778;2022-10-16T06:16:32;12.70;99.90
7784;DHT22;19359;51.402;6.778;2022-10-16T06:18:59;12.50;99.90
7784;DHT22;19359;51.402;6.778;2022-10-16T06:21:27;12.50;99.90
7784;DHT22;19359;51.402;6.778;2022-10-16T06:23:56;12.50;99.90
7784;DHT22;19359;51.402;6.778;2022-10-16T06:26:24;12.40;99.90
7784;DHT22;19359;51.402;6.778;2022-10-16T06:28:53;12.40;99.90
7784;DHT22;19359;51.402;6.778;2022-10-16T06:31:22;12.40;99.90
7784;DHT22;19359;51.402;6.778;2022-10-16T06:33:53;12.40;99.90
7784;DHT22;19359;51.402;6.778;2022-10-16T06:36:20;12.50;99.90
7784;DHT22;19359;51.402;6.778;2022-10-16T06:38:47;12.50;99.90
7784;DHT22;19359;51.402;6.778;2022-10-16T06:41:15;12.50;99.90
7784;DHT22;19359;51.402;6.778;2022-10-16T06:43:43;12.60;99.90
7784;DHT22;19359;51.402;6.778;2022-10-16T06:46:11;12.60;99.90
7784;DHT22;19359;51.402;6.778;2022-10-16T06:48:40;12.70;99.90
7784;DHT22;19359;51.402;6.778;2022-10-16T06:51:10;12.70;99.90
7784;DHT22;19359;51.402;6.778;2022-10-16T06:53:38;12.70;99.90
7784;DHT22;19359;51.402;6.778;2022-10-16T06:56:08;12.80;99.90
7784;DHT22;19359;51.402;6.778;2022-10-16T06:58:35;12.70;99.90
7784;DHT22;19359;51.402;6.778;2022-10-16T07:01:02;12.80;99.90
7784;DHT22;19359;51.402;6.778;2022-10-16T07:03:29;12.80;99.90
7784;DHT22;19359;51.402;6.778;2022-10-16T07:06:00;12.80;99.90
7784;DHT22;19359;51.402;6.778;2022-10-16T07:08:27;12.80;99.90
7784;DHT22;19359;51.402;6.778;2022-10-16T07:10:58;12.80;99.90
7784;DHT22;19359;51.402;6.778;2022-10-16T07:13:25;12.80;99.90
7784;DHT22;19359;51.402;6.778;2022-10-16T07:15:52;12.80;99.90
7784;DHT22;19359;51.402;6.778;2022-10-16T07:18:19;12.90;99.90
7784;DHT22;19359;51.402;6.778;2022-10-16T07:20:46;12.90;99.90
7784;DHT22;19359;51.402;6.778;2022-10-16T07:23:14;12.90;99.90
7784;DHT22;19359;51.402;6.778;2022-10-16T07:25:40;12.80;99.90
7784;DHT22;19359;51.402;6.778;2022-10-16T07:28:07;12.80;99.90
7784;DHT22;19359;51.402;6.778;2022-10-16T07:30:35;12.70;99.90
7784;DHT22;19359;51.402;6.778;2022-10-16T07:33:02;12.80;99.90
7784;DHT22;19359;51.402;6.778;2022-10-16T07:35:29;12.80;99.90
7784;DHT22;19359;51.402;6.778;2022-10-16T07:37:55;12.90;99.90
7784;DHT22;19359;51.402;6.778;2022-10-16T07:40:24;13.10;99.90
7784;DHT22;19359;51.402;6.778;2022-10-16T07:42:52;13.20;99.90
7784;DHT22;19359;51.402;6.778;2022-10-16T07:45:19;13.30;99.90
7784;DHT22;19359;51.402;6.778;2022-10-16T07:47:45;13.30;99.90
7784;DHT22;19359;51.402;6.778;2022-10-16T07:50:12;13.40;99.90
7784;DHT22;19359;51.402;6.778;2022-10-16T07:52:39;13.50;99.90
7784;DHT22;19359;51.402;6.778;2022-10-16T07:55:06;13.70;99.90
7784;DHT22;19359;51.402;6.778;2022-10-16T07:57:34;13.70;99.90
7784;DHT22;19359;51.402;6.778;2022-10-16T08:00:01;13.80;99.90
7784;DHT22;19359;51.402;6.778;2022-10-16T08:02:28;13.90;99.90
7784;DHT22;19359;51.402;6.778;2022-10-16T08:04:55;14.10;99.90
7784;DHT22;19359;51.402;6.778;2022-10-16T08:07:22;14.10;99.90
7784;DHT22;19359;51.402;6.778;2022-10-16T08:09:49;14.20;99.90
7784;DHT22;19359;51.402;6.778;2022-10-16T08:12:16;14.20;99.90
7784;DHT22;19359;51.402;6.778;2022-10-16T08:14:44;14.30;99.90
7784;DHT22;19359;51.402;6.778;2022-10-16T08:17:14;14.40;99.90
7784;DHT22;19359;51.402;6.778;2022-10-16T08:19:44;14.50;99.90
7784;DHT22;19359;51.402;6.778;2022-10-16T08:22:11;14.70;99.90
7784;DHT22;19359;51.402;6.778;2022-10-16T08:24:38;14.70;99.90
7784;DHT22;19359;51.402;6.778;2022-10-16T08:27:05;14.80;99.90
7784;DHT22;19359;51.402;6.778;2022-10-16T08:29:32;14.80;99.90
7784;DHT22;19359;51.402;6.778;2022-10-16T08:32:00;14.90;99.90
7784;DHT22;19359;51.402;6.778;2022-10-16T08:34:26;14.90;99.90
7784;DHT22;19359;51.402;6.778;2022-10-16T08:36:53;15.00;99.90
7784;DHT22;19359;51.402;6.778;2022-10-16T08:39:20;15.00;99.90
7784;DHT22;19359;51.402;6.778;2022-10-16T08:42:19;15.20;99.90
7784;DHT22;19359;51.402;6.778;2022-10-16T08:45:30;15.30;99.90
7784;DHT22;19359;51.402;6.778;2022-10-16T08:48:09;15.30;99.90
7784;DHT22;19359;51.402;6.778;2022-10-16T08:50:41;15.50;1.00
7784;DHT22;19359;51.402;6.778;2022-10-16T08:53:14;15.50;99.90
7784;DHT22;19359;51.402;6.778;2022-10-16T08:55:43;15.60;1.00
7784;DHT22;19359;51.402;6.778;2022-10-16T08:58:12;15.60;1.00
7784;DHT22;19359;51.402;6.778;2022-10-16T09:00:40;15.70;1.00
7784;DHT22;19359;51.402;6.778;2022-10-16T09:03:17;15.80;1.00
7784;DHT22;19359;51.402;6.778;2022-10-16T09:06:07;15.80;99.90
7784;DHT22;19359;51.402;6.778;2022-10-16T09:08:42;15.80;99.90
7784;DHT22;19359;51.402;6.778;2022-10-16T09:11:16;15.90;99.90
7784;DHT22;19359;51.402;6.778;2022-10-16T09:13:50;16.00;1.00
7784;DHT22;19359;51.402;6.778;2022-10-16T09:16:22;16.10;1.00
7784;DHT22;19359;51.402;6.778;2022-10-16T09:18:57;16.10;1.00
7784;DHT22;19359;51.402;6.778;2022-10-16T09:21:30;16.20;1.00
7784;DHT22;19359;51.402;6.778;2022-10-16T09:23:59;16.30;1.00
7784;DHT22;19359;51.402;6.778;2022-10-16T09:26:31;16.30;1.00
7784;DHT22;19359;51.402;6.778;2022-10-16T09:28:58;16.40;1.00
7784;DHT22;19359;51.402;6.778;2022-10-16T09:31:24;16.50;1.00
7784;DHT22;19359;51.402;6.778;2022-10-16T09:33:55;16.60;1.00
7784;DHT22;19359;51.402;6.778;2022-10-16T09:36:25;16.60;1.00
7784;DHT22;19359;51.402;6.778;2022-10-16T09:39:03;16.60;1.00
7784;DHT22;19359;51.402;6.778;2022-10-16T09:41:33;16.60;1.00
7784;DHT22;19359;51.402;6.778;2022-10-16T09:44:01;16.60;1.00
7784;DHT22;19359;51.402;6.778;2022-10-16T09:46:30;16.60;1.00
7784;DHT22;19359;51.402;6.778;2022-10-16T09:48:59;16.60;1.00
7784;DHT22;19359;51.402;6.778;2022-10-16T09:51:28;16.60;1.00
7784;DHT22;19359;51.402;6.778;2022-10-16T09:53:57;16.60;1.00
7784;DHT22;19359;51.402;6.778;2022-10-16T09:56:26;16.60;1.00
7784;DHT22;19359;51.402;6.778;2022-10-16T09:58:54;16.60;1.00
7784;DHT22;19359;51.402;6.778;2022-10-16T10:01:24;16.60;1.00
7784;DHT22;19359;51.402;6.778;2022-10-16T10:03:57;16.70;1.00
7784;DHT22;19359;51.402;6.778;2022-10-16T10:06:28;16.70;1.00
7784;DHT22;19359;51.402;6.778;2022-10-16T10:08:58;16.70;1.00
7784;DHT22;19359;51.402;6.778;2022-10-16T10:11:43;16.80;1.00
7784;DHT22;19359;51.402;6.778;2022-10-16T10:14:17;16.90;1.00
7784;DHT22;19359;51.402;6.778;2022-10-16T10:16:44;16.90;1.00
7784;DHT22;19359;51.402;6.778;2022-10-16T10:19:15;16.90;1.00
7784;DHT22;19359;51.402;6.778;2022-10-16T10:21:42;17.00;1.00
7784;DHT22;19359;51.402;6.778;2022-10-16T10:24:14;17.00;1.00
7784;DHT22;19359;51.402;6.778;2022-10-16T10:26:48;17.10;1.00
7784;DHT22;19359;51.402;6.778;2022-10-16T10:29:24;17.10;1.00
7784;DHT22;19359;51.402;6.778;2022-10-16T10:32:00;17.10;1.00
7784;DHT22;19359;51.402;6.778;2022-10-16T10:34:45;16.90;1.00
7784;DHT22;19359;51.402;6.778;2022-10-16T10:37:26;17.00;1.00
7784;DHT22;19359;51.402;6.778;2022-10-16T10:40:00;16.90;1.00
7784;DHT22;19359;51.402;6.778;2022-10-16T10:42:35;17.00;1.00
7784;DHT22;19359;51.402;6.778;2022-10-16T10:45:17;16.90;1.00
7784;DHT22;19359;51.402;6.778;2022-10-16T10:47:52;17.00;1.00
7784;DHT22;19359;51.402;6.778;2022-10-16T10:50:30;17.00;1.00
7784;DHT22;19359;51.402;6.778;2022-10-16T10:53:05;17.10;1.00
7784;DHT22;19359;51.402;6.778;2022-10-16T10:55:40;17.20;1.00
7784;DHT22;19359;51.402;6.778;2022-10-16T10:58:44;17.30;1.00
7784;DHT22;19359;51.402;6.778;2022-10-16T11:01:16;17.50;1.00
7784;DHT22;19359;51.402;6.778;2022-10-16T11:04:07;17.60;1.00
7784;DHT22;19359;51.402;6.778;2022-10-16T11:06:43;17.80;1.00
7784;DHT22;19359;51.402;6.778;2022-10-16T11:09:15;17.80;1.00
7784;DHT22;19359;51.402;6.778;2022-10-16T11:11:46;17.80;1.00
7784;DHT22;19359;51.402;6.778;2022-10-16T11:14:18;17.80;1.00
7784;DHT22;19359;51.402;6.778;2022-10-16T11:16:51;17.80;1.00
7784;DHT22;19359;51.402;6.778;2022-10-16T11:19:27;17.80;1.00
7784;DHT22;19359;51.402;6.778;2022-10-16T11:22:01;17.80;1.00
7784;DHT22;19359;51.402;6.778;2022-10-16T11:24:36;17.90;1.00
7784;DHT22;19359;51.402;6.778;2022-10-16T11:27:09;17.70;1.00
7784;DHT22;19359;51.402;6.778;2022-10-16T11:29:44;17.70;1.00
7784;DHT22;19359;51.402;6.778;2022-10-16T11:32:19;17.80;1.00
7784;DHT22;19359;51.402;6.778;2022-10-16T11:34:50;17.90;1.00
7784;DHT22;19359;51.402;6.778;2022-10-16T11:37:23;18.10;1.00
7784;DHT22;19359;51.402;6.778;2022-10-16T11:39:54;18.10;1.00
7784;DHT22;19359;51.402;6.778;2022-10-16T11:42:30;18.10;1.00
7784;DHT22;19359;51.402;6.778;2022-10-16T11:45:03;18.10;1.00
7784;DHT22;19359;51.402;6.778;2022-10-16T11:47:35;18.30;1.00
7784;DHT22;19359;51.402;6.778;2022-10-16T11:50:11;18.20;1.00
7784;DHT22;19359;51.402;6.778;2022-10-16T11:52:43;18.20;1.00
7784;DHT22;19359;51.402;6.778;2022-10-16T11:55:15;18.30;1.00
7784;DHT22;19359;51.402;6.778;2022-10-16T11:57:47;18.20;1.00
7784;DHT22;19359;51.402;6.778;2022-10-16T12:00:21;18.40;1.00
7784;DHT22;19359;51.402;6.778;2022-10-16T12:02:55;18.50;1.00
7784;DHT22;19359;51.402;6.778;2022-10-16T12:05:29;18.70;1.00
7784;DHT22;19359;51.402;6.778;2022-10-16T12:08:08;18.80;1.00
7784;DHT22;19359;51.402;6.778;2022-10-16T12:10:37;18.80;1.00
7784;DHT22;19359;51.402;6.778;2022-10-16T12:13:04;18.90;1.00
7784;DHT22;19359;51.402;6.778;2022-10-16T12:15:33;19.00;1.00
7784;DHT22;19359;51.402;6.778;2022-10-16T12:18:00;19.00;1.00
7784;DHT22;19359;51.402;6.778;2022-10-16T12:20:29;18.80;1.00
7784;DHT22;19359;51.402;6.778;2022-10-16T12:22:59;18.70;1.00
7784;DHT22;19359;51.402;6.778;2022-10-16T12:25:30;18.70;1.00
7784;DHT22;19359;51.402;6.778;2022-10-16T12:28:03;18.60;1.00
7784;DHT22;19359;51.402;6.778;2022-10-16T12:30:33;18.60;1.00
7784;DHT22;19359;51.402;6.778;2022-10-16T12:33:02;18.60;1.00
7784;DHT22;19359;51.402;6.778;2022-10-16T12:35:32;18.80;1.00
7784;DHT22;19359;51.402;6.778;2022-10-16T12:38:08;19.00;1.00
7784;DHT22;19359;51.402;6.778;2022-10-16T12:40:43;19.20;1.00
7784;DHT22;19359;51.402;6.778;2022-10-16T12:43:26;19.40;1.00
7784;DHT22;19359;51.402;6.778;2022-10-16T12:46:05;19.30;1.00
7784;DHT22;19359;51.402;6.778;2022-10-16T12:48:32;19.50;1.00
7784;DHT22;19359;51.402;6.778;2022-10-16T12:51:10;19.80;1.00
7784;DHT22;19359;51.402;6.778;2022-10-16T12:53:37;20.30;1.00
7784;DHT22;19359;51.402;6.778;2022-10-16T12:56:11;20.60;1.00
7784;DHT22;19359;51.402;6.778;2022-10-16T12:58:50;21.70;1.00
7784;DHT22;19359;51.402;6.778;2022-10-16T13:01:29;22.70;1.00
7784;DHT22;19359;51.402;6.778;2022-10-16T13:04:16;23.20;1.00
7784;DHT22;19359;51.402;6.778;2022-10-16T13:06:51;22.70;1.00
7784;DHT22;19359;51.402;6.778;2022-10-16T13:09:43;21.50;1.00
7784;DHT22;19359;51.402;6.778;2022-10-16T13:12:27;20.80;1.00
7784;DHT22;19359;51.402;6.778;2022-10-16T13:15:09;21.00;1.00
7784;DHT22;19359;51.402;6.778;2022-10-16T13:17:44;22.40;1.00
7784;DHT22;19359;51.402;6.778;2022-10-16T13:20:18;23.00;1.00
7784;DHT22;19359;51.402;6.778;2022-10-16T13:22:54;23.20;1.00
7784;DHT22;19359;51.402;6.778;2022-10-16T13:25:27;22.50;1.00
7784;DHT22;19359;51.402;6.778;2022-10-16T13:27:59;22.60;1.00
7784;DHT22;19359;51.402;6.778;2022-10-16T13:30:29;23.40;1.00
7784;DHT22;19359;51.402;6.778;2022-10-16T13:32:59;23.00;1.00
7784;DHT22;19359;51.402;6.778;2022-10-16T13:35:28;22.50;99.90
7784;DHT22;19359;51.402;6.778;2022-10-16T13:38:13;22.10;1.00
7784;DHT22;19359;51.402;6.778;2022-10-16T13:40:52;21.90;99.90
7784;DHT22;19359;51.402;6.778;2022-10-16T13:43:23;21.60;1.00
7784;DHT22;19359;51.402;6.778;2022-10-16T13:45:58;21.10;99.90
7784;DHT22;19359;51.402;6.778;2022-10-16T13:48:26;20.60;1.00
7784;DHT22;19359;51.402;6.778;2022-10-16T13:51:04;20.30;1.00
7784;DHT22;19359;51.402;6.778;2022-10-16T13:53:32;20.10;1.00
7784;DHT22;19359;51.402;6.778;2022-10-16T13:55:59;20.00;1.00
7784;DHT22;19359;51.402;6.778;2022-10-16T13:58:27;20.10;1.00
7784;DHT22;19359;51.402;6.778;2022-10-16T14:00:56;20.20;1.00
7784;DHT22;19359;51.402;6.778;2022-10-16T14:03:24;20.20;1.00
7784;DHT22;19359;51.402;6.778;2022-10-16T14:05:53;20.20;1.00
7784;DHT22;19359;51.402;6.778;2022-10-16T14:08:23;20.20;1.00
7784;DHT22;19359;51.402;6.778;2022-10-16T14:10:53;20.40;1.00
7784;DHT22;19359;51.402;6.778;2022-10-16T14:13:26;20.40;1.00
7784;DHT22;19359;51.402;6.778;2022-10-16T14:15:56;20.40;1.00
7784;DHT22;19359;51.402;6.778;2022-10-16T14:18:25;20.30;1.00
7784;DHT22;19359;51.402;6.778;2022-10-16T14:20:53;20.00;1.00
7784;DHT22;19359;51.402;6.778;2022-10-16T14:23:23;19.70;1.00
7784;DHT22;19359;51.402;6.778;2022-10-16T14:25:51;19.50;1.00
7784;DHT22;19359;51.402;6.778;2022-10-16T14:28:20;19.30;1.00
7784;DHT22;19359;51.402;6.778;2022-10-16T14:30:51;19.30;99.90
7784;DHT22;19359;51.402;6.778;2022-10-16T14:33:23;19.20;1.00
7784;DHT22;19359;51.402;6.778;2022-10-16T14:36:02;19.20;1.00
7784;DHT22;19359;51.402;6.778;2022-10-16T14:38:29;19.20;99.90
7784;DHT22;19359;51.402;6.778;2022-10-16T14:40:58;19.20;1.00
7784;DHT22;19359;51.402;6.778;2022-10-16T14:43:31;19.20;1.00
7784;DHT22;19359;51.402;6.778;2022-10-16T14:45:58;19.00;1.00
7784;DHT22;19359;51.402;6.778;2022-10-16T14:48:26;19.00;1.00
7784;DHT22;19359;51.402;6.778;2022-10-16T14:50:53;18.90;1.00
7784;DHT22;19359;51.402;6.778;2022-10-16T14:53:20;18.80;1.00
7784;DHT22;19359;51.402;6.778;2022-10-16T14:55:47;18.80;1.00
7784;DHT22;19359;51.402;6.778;2022-10-16T14:58:15;18.70;1.00
7784;DHT22;19359;51.402;6.778;2022-10-16T15:00:42;18.60;1.00
7784;DHT22;19359;51.402;6.778;2022-10-16T15:03:09;18.50;1.00
7784;DHT22;19359;51.402;6.778;2022-10-16T15:05:38;18.50;1.00
7784;DHT22;19359;51.402;6.778;2022-10-16T15:08:04;18.30;1.00
7784;DHT22;19359;51.402;6.778;2022-10-16T15:10:35;18.20;1.00
7784;DHT22;19359;51.402;6.778;2022-10-16T15:13:04;18.10;1.00
7784;DHT22;19359;51.402;6.778;2022-10-16T15:15:35;18.00;1.00
7784;DHT22;19359;51.402;6.778;2022-10-16T15:18:03;17.90;1.00
7784;DHT22;19359;51.402;6.778;2022-10-16T15:20:31;17.80;1.00
7784;DHT22;19359;51.402;6.778;2022-10-16T15:23:01;17.70;1.00
7784;DHT22;19359;51.402;6.778;2022-10-16T15:25:31;17.60;1.00
7784;DHT22;19359;51.402;6.778;2022-10-16T15:27:59;17.50;1.00
7784;DHT22;19359;51.402;6.778;2022-10-16T15:30:26;17.40;1.00
7784;DHT22;19359;51.402;6.778;2022-10-16T15:32:53;17.30;1.00
7784;DHT22;19359;51.402;6.778;2022-10-16T15:35:19;17.40;1.00
7784;DHT22;19359;51.402;6.778;2022-10-16T15:37:46;17.20;1.00
7784;DHT22;19359;51.402;6.778;2022-10-16T15:40:15;17.20;1.00
7784;DHT22;19359;51.402;6.778;2022-10-16T15:42:42;17.10;1.00
7784;DHT22;19359;51.402;6.778;2022-10-16T15:45:11;17.00;1.00
7784;DHT22;19359;51.402;6.778;2022-10-16T15:47:37;16.90;1.00
7784;DHT22;19359;51.402;6.778;2022-10-16T15:50:05;16.90;1.00
7784;DHT22;19359;51.402;6.778;2022-10-16T15:52:32;16.80;1.00
7784;DHT22;19359;51.402;6.778;2022-10-16T15:54:59;16.80;1.00
7784;DHT22;19359;51.402;6.778;2022-10-16T15:57:29;16.70;1.00
7784;DHT22;19359;51.402;6.778;2022-10-16T15:59:55;16.60;1.00
7784;DHT22;19359;51.402;6.778;2022-10-16T16:02:22;16.50;1.00
7784;DHT22;19359;51.402;6.778;2022-10-16T16:04:49;16.50;1.00
7784;DHT22;19359;51.402;6.778;2022-10-16T16:07:15;16.40;1.00
7784;DHT22;19359;51.402;6.778;2022-10-16T16:09:42;16.40;1.00